sensor_id;sensor_type;location;lat;lon;timestamp;temperature;humidity
13375;DHT22;6756;51.354;15.754;2023-03-14T00:01:10;10.50;1.00
13375;DHT22;6756;51.354;15.754;2023-03-14T00:05:11;10.50;99.90
13375;DHT22;6756;51.354;15.754;2023-03-14T00:09:13;10.50;14.30
13375;DHT22;6756;51.354;15.754;2023-03-14T00:13:14;10.40;99.90
13375;DHT22;6756;51.354;15.754;2023-03-14T00:17:14;10.50;1.00
13375;DHT22;6756;51.354;15.754;2023-03-14T00:21:15;10.40;99.90
13375;DHT22;6756;51.354;15.754;2023-03-14T00:25:16;10.40;1.00
13375;DHT22;6756;51.354;15.754;2023-03-14T00:29:17;10.30;99.90
13375;DHT22;6756;51.354;15.754;2023-03-14T00:33:18;10.20;99.90
13375;DHT22;6756;51.354;15.754;2023-03-14T00:37:19;10.20;99.90
13375;DHT22;6756;51.354;15.754;2023-03-14T00:41:22;10.20;99.90
13375;DHT22;6756;51.354;15.754;2023-03-14T00:45:23;10.10;96.80
13375;DHT22;6756;51.354;15.754;2023-03-14T00:49:24;10.10;13.60
13375;DHT22;6756;51.354;15.754;2023-03-14T00:53:25;10.10;99.90
13375;DHT22;6756;51.354;15.754;2023-03-14T00:57:25;10.00;99.90
13375;DHT22;6756;51.354;15.754;2023-03-14T01:01:27;10.00;99.90
13375;DHT22;6756;51.354;15.754;2023-03-14T01:05:28;10.00;1.00
13375;DHT22;6756;51.354;15.754;2023-03-14T01:09:29;9.90;1.00
13375;DHT22;6756;51.354;15.754;2023-03-14T01:13:30;9.90;99.90
13375;DHT22;6756;51.354;15.754;2023-03-14T01:17:31;9.90;99.90
13375;DHT22;6756;51.354;15.754;2023-03-14T01:21:34;9.80;99.90
13375;DHT22;6756;51.354;15.754;2023-03-14T01:25:41;9.60;99.90
13375;DHT22;6756;51.354;15.754;2023-03-14T01:29:42;9.50;99.90
13375;DHT22;6756;51.354;15.754;2023-03-14T01:33:43;9.40;99.90
13375;DHT22;6756;51.354;15.754;2023-03-14T01:37:43;9.30;99.90
13375;DHT22;6756;51.354;15.754;2023-03-14T01:41:44;9.20;99.90
13375;DHT22;6756;51.354;15.754;2023-03-14T01:50:08;9.10;99.90
13375;DHT22;6756;51.354;15.754;2023-03-14T01:58:17;8.90;99.90
13375;DHT22;6756;51.354;15.754;2023-03-14T02:02:20;8.70;99.90
13375;DHT22;6756;51.354;15.754;2023-03-14T02:06:27;8.70;99.90
13375;DHT22;6756;51.354;15.754;2023-03-14T02:10:41;8.60;99.90
13375;DHT22;6756;51.354;15.754;2023-03-14T02:14:42;8.60;99.90
13375;DHT22;6756;51.354;15.754;2023-03-14T02:18:48;8.60;99.90
13375;DHT22;6756;51.354;15.754;2023-03-14T02:22:49;8.70;99.90
13375;DHT22;6756;51.354;15.754;2023-03-14T02:31:08;8.80;99.90
13375;DHT22;6756;51.354;15.754;2023-03-14T02:35:15;8.90;99.90
13375;DHT22;6756;51.354;15.754;2023-03-14T02:39:35;8.90;99.90
13375;DHT22;6756;51.354;15.754;2023-03-14T02:43:37;8.90;99.90
13375;DHT22;6756;51.354;15.754;2023-03-14T02:47:43;8.90;99.90
13375;DHT22;6756;51.354;15.754;2023-03-14T02:51:45;8.90;99.90
13375;DHT22;6756;51.354;15.754;2023-03-14T02:55:49;8.70;99.90
13375;DHT22;6756;51.354;15.754;2023-03-14T02:59:50;8.60;99.90
13375;DHT22;6756;51.354;15.754;2023-03-14T03:03:51;8.50;99.90
13375;DHT22;6756;51.354;15.754;2023-03-14T03:07:52;8.40;99.90
13375;DHT22;6756;51.354;15.754;2023-03-14T03:11:53;8.30;99.90
13375;DHT22;6756;51.354;15.754;2023-03-14T03:15:53;8.10;99.90
13375;DHT22;6756;51.354;15.754;2023-03-14T03:19:54;8.00;99.90
13375;DHT22;6756;51.354;15.754;2023-03-14T03:23:55;7.90;99.90
13375;DHT22;6756;51.354;15.754;2023-03-14T03:27:56;7.80;99.90
13375;DHT22;6756;51.354;15.754;2023-03-14T03:31:57;7.60;99.90
13375;DHT22;6756;51.354;15.754;2023-03-14T03:35:58;7.50;99.90
13375;DHT22;6756;51.354;15.754;2023-03-14T03:39:59;7.40;99.90
13375;DHT22;6756;51.354;15.754;2023-03-14T03:44:01;7.40;99.90
13375;DHT22;6756;51.354;15.754;2023-03-14T03:48:01;7.30;99.90
13375;DHT22;6756;51.354;15.754;2023-03-14T03:52:02;7.20;99.90
13375;DHT22;6756;51.354;15.754;2023-03-14T03:56:03;7.20;99.90
13375;DHT22;6756;51.354;15.754;2023-03-14T04:00:05;7.20;99.90
13375;DHT22;6756;51.354;15.754;2023-03-14T04:04:06;7.10;99.90
13375;DHT22;6756;51.354;15.754;2023-03-14T04:08:07;7.00;99.90
13375;DHT22;6756;51.354;15.754;2023-03-14T04:12:08;6.90;99.90
13375;DHT22;6756;51.354;15.754;2023-03-14T04:16:15;6.80;99.90
13375;DHT22;6756;51.354;15.754;2023-03-14T04:20:17;6.60;99.90
13375;DHT22;6756;51.354;15.754;2023-03-14T04:24:18;6.60;99.90
13375;DHT22;6756;51.354;15.754;2023-03-14T04:28:19;6.60;99.90
13375;DHT22;6756;51.354;15.754;2023-03-14T04:32:20;6.60;99.90
13375;DHT22;6756;51.354;15.754;2023-03-14T04:36:20;6.50;99.90
13375;DHT22;6756;51.354;15.754;2023-03-14T04:40:21;6.30;99.90
13375;DHT22;6756;51.354;15.754;2023-03-14T04:44:22;6.20;99.90
13375;DHT22;6756;51.354;15.754;2023-03-14T04:48:24;6.10;99.90
13375;DHT22;6756;51.354;15.754;2023-03-14T04:52:26;6.10;99.90
13375;DHT22;6756;51.354;15.754;2023-03-14T04:56:27;6.00;99.90
13375;DHT22;6756;51.354;15.754;2023-03-14T05:00:28;5.90;99.90
13375;DHT22;6756;51.354;15.754;2023-03-14T05:04:29;5.80;99.90
13375;DHT22;6756;51.354;15.754;2023-03-14T05:08:33;5.80;99.90
13375;DHT22;6756;51.354;15.754;2023-03-14T05:12:34;5.80;99.90
13375;DHT22;6756;51.354;15.754;2023-03-14T05:16:34;5.70;99.90
13375;DHT22;6756;51.354;15.754;2023-03-14T05:20:35;5.60;99.90
13375;DHT22;6756;51.354;15.754;2023-03-14T05:24:36;5.60;99.90
13375;DHT22;6756;51.354;15.754;2023-03-14T05:28:37;5.50;99.90
13375;DHT22;6756;51.354;15.754;2023-03-14T05:32:38;5.50;99.90
13375;DHT22;6756;51.354;15.754;2023-03-14T05:36:38;5.80;99.90
13375;DHT22;6756;51.354;15.754;2023-03-14T05:40:39;6.10;99.90
13375;DHT22;6756;51.354;15.754;2023-03-14T05:44:40;6.50;99.90
13375;DHT22;6756;51.354;15.754;2023-03-14T05:48:41;6.90;99.90
13375;DHT22;6756;51.354;15.754;2023-03-14T05:52:42;7.30;99.90
13375;DHT22;6756;51.354;15.754;2023-03-14T05:56:42;7.50;99.90
13375;DHT22;6756;51.354;15.754;2023-03-14T06:00:43;7.60;99.90
13375;DHT22;6756;51.354;15.754;2023-03-14T06:04:44;7.60;99.90
13375;DHT22;6756;51.354;15.754;2023-03-14T06:08:45;7.70;99.90
13375;DHT22;6756;51.354;15.754;2023-03-14T06:12:46;7.80;99.90
13375;DHT22;6756;51.354;15.754;2023-03-14T06:16:46;7.90;99.90
13375;DHT22;6756;51.354;15.754;2023-03-14T06:20:49;7.90;99.90
13375;DHT22;6756;51.354;15.754;2023-03-14T06:24:53;8.10;99.90
13375;DHT22;6756;51.354;15.754;2023-03-14T06:28:54;8.20;99.90
13375;DHT22;6756;51.354;15.754;2023-03-14T06:32:55;8.40;99.90
13375;DHT22;6756;51.354;15.754;2023-03-14T06:36:58;8.80;99.90
13375;DHT22;6756;51.354;15.754;2023-03-14T06:41:06;9.30;99.90
13375;DHT22;6756;51.354;15.754;2023-03-14T06:45:08;9.80;99.90
13375;DHT22;6756;51.354;15.754;2023-03-14T06:49:09;10.20;99.90
13375;DHT22;6756;51.354;15.754;2023-03-14T06:53:09;10.40;99.90
13375;DHT22;6756;51.354;15.754;2023-03-14T06:57:10;10.60;99.90
13375;DHT22;6756;51.354;15.754;2023-03-14T07:01:22;10.60;99.90
13375;DHT22;6756;51.354;15.754;2023-03-14T07:05:24;10.60;99.90
13375;DHT22;6756;51.354;15.754;2023-03-14T07:09:24;10.50;99.90
13375;DHT22;6756;51.354;15.754;2023-03-14T07:13:25;10.40;99.90
13375;DHT22;6756;51.354;15.754;2023-03-14T07:17:26;10.50;99.90
13375;DHT22;6756;51.354;15.754;2023-03-14T07:21:28;10.60;99.90
13375;DHT22;6756;51.354;15.754;2023-03-14T07:25:29;10.80;99.90
13375;DHT22;6756;51.354;15.754;2023-03-14T07:29:30;10.90;99.90
13375;DHT22;6756;51.354;15.754;2023-03-14T07:33:31;11.10;99.90
13375;DHT22;6756;51.354;15.754;2023-03-14T07:37:32;11.20;99.90
13375;DHT22;6756;51.354;15.754;2023-03-14T07:41:33;11.40;1.00
13375;DHT22;6756;51.354;15.754;2023-03-14T07:45:33;11.50;1.00
13375;DHT22;6756;51.354;15.754;2023-03-14T07:49:34;11.70;99.90
13375;DHT22;6756;51.354;15.754;2023-03-14T07:53:35;11.70;99.90
13375;DHT22;6756;51.354;15.754;2023-03-14T07:57:36;11.70;99.90
13375;DHT22;6756;51.354;15.754;2023-03-14T08:01:37;11.70;99.90
13375;DHT22;6756;51.354;15.754;2023-03-14T08:05:38;11.60;99.90
13375;DHT22;6756;51.354;15.754;2023-03-14T08:09:39;11.60;99.90
13375;DHT22;6756;51.354;15.754;2023-03-14T08:13:39;11.60;99.90
13375;DHT22;6756;51.354;15.754;2023-03-14T08:17:40;11.60;99.90
13375;DHT22;6756;51.354;15.754;2023-03-14T08:21:41;11.60;99.90
13375;DHT22;6756;51.354;15.754;2023-03-14T08:25:42;11.60;99.90
13375;DHT22;6756;51.354;15.754;2023-03-14T08:29:43;11.60;99.90
13375;DHT22;6756;51.354;15.754;2023-03-14T08:33:44;11.60;99.90
13375;DHT22;6756;51.354;15.754;2023-03-14T08:37:45;11.60;99.90
13375;DHT22;6756;51.354;15.754;2023-03-14T08:41:47;11.70;99.90
13375;DHT22;6756;51.354;15.754;2023-03-14T08:45:49;12.00;99.90
13375;DHT22;6756;51.354;15.754;2023-03-14T08:49:50;12.40;99.90
13375;DHT22;6756;51.354;15.754;2023-03-14T08:53:51;12.50;99.90
13375;DHT22;6756;51.354;15.754;2023-03-14T08:57:52;12.70;99.90
13375;DHT22;6756;51.354;15.754;2023-03-14T09:01:53;12.90;99.90
13375;DHT22;6756;51.354;15.754;2023-03-14T09:05:55;13.10;99.90
13375;DHT22;6756;51.354;15.754;2023-03-14T09:09:55;13.20;92.30
13375;DHT22;6756;51.354;15.754;2023-03-14T09:13:56;13.40;73.80
13375;DHT22;6756;51.354;15.754;2023-03-14T09:17:58;13.60;49.30
13375;DHT22;6756;51.354;15.754;2023-03-14T09:21:59;13.80;34.20
13375;DHT22;6756;51.354;15.754;2023-03-14T09:26:00;13.80;1.80
13375;DHT22;6756;51.354;15.754;2023-03-14T09:30:01;13.80;1.40
13375;DHT22;6756;51.354;15.754;2023-03-14T09:34:02;13.90;4.00
13375;DHT22;6756;51.354;15.754;2023-03-14T09:38:03;14.30;1.00
13375;DHT22;6756;51.354;15.754;2023-03-14T09:42:06;14.70;1.00
13375;DHT22;6756;51.354;15.754;2023-03-14T09:46:09;15.00;1.00
13375;DHT22;6756;51.354;15.754;2023-03-14T09:50:15;15.20;1.00
13375;DHT22;6756;51.354;15.754;2023-03-14T09:58:48;15.50;1.00
13375;DHT22;6756;51.354;15.754;2023-03-14T10:03:00;15.70;1.00
13375;DHT22;6756;51.354;15.754;2023-03-14T10:07:02;15.50;1.00
13375;DHT22;6756;51.354;15.754;2023-03-14T10:11:03;15.40;1.00
13375;DHT22;6756;51.354;15.754;2023-03-14T10:15:09;15.40;1.00
13375;DHT22;6756;51.354;15.754;2023-03-14T10:19:14;15.50;1.00
13375;DHT22;6756;51.354;15.754;2023-03-14T10:27:39;15.60;1.00
13375;DHT22;6756;51.354;15.754;2023-03-14T10:32:06;15.70;1.00
13375;DHT22;6756;51.354;15.754;2023-03-14T10:36:21;15.90;1.00
13375;DHT22;6756;51.354;15.754;2023-03-14T10:40:37;16.10;1.00
13375;DHT22;6756;51.354;15.754;2023-03-14T10:44:40;16.10;1.00
13375;DHT22;6756;51.354;15.754;2023-03-14T10:48:41;16.10;1.00
13375;DHT22;6756;51.354;15.754;2023-03-14T10:52:48;15.80;1.00
13375;DHT22;6756;51.354;15.754;2023-03-14T10:56:59;15.70;1.00
13375;DHT22;6756;51.354;15.754;2023-03-14T11:22:23;16.30;1.00
13375;DHT22;6756;51.354;15.754;2023-03-14T11:30:54;16.60;1.00
13375;DHT22;6756;51.354;15.754;2023-03-14T11:34:56;16.70;1.00
13375;DHT22;6756;51.354;15.754;2023-03-14T11:39:00;16.60;1.00
13375;DHT22;6756;51.354;15.754;2023-03-14T11:43:17;16.60;1.00
13375;DHT22;6756;51.354;15.754;2023-03-14T11:47:32;16.30;1.00
13375;DHT22;6756;51.354;15.754;2023-03-14T11:51:46;16.30;1.00
13375;DHT22;6756;51.354;15.754;2023-03-14T11:55:47;16.20;1.00
13375;DHT22;6756;51.354;15.754;2023-03-14T12:00:24;16.20;1.00
13375;DHT22;6756;51.354;15.754;2023-03-14T12:04:43;16.30;1.00
13375;DHT22;6756;51.354;15.754;2023-03-14T12:08:57;16.30;1.00
13375;DHT22;6756;51.354;15.754;2023-03-14T12:12:59;16.20;1.00
13375;DHT22;6756;51.354;15.754;2023-03-14T12:17:17;15.90;1.00
13375;DHT22;6756;51.354;15.754;2023-03-14T12:21:19;16.00;1.00
13375;DHT22;6756;51.354;15.754;2023-03-14T12:25:26;15.80;1.00
13375;DHT22;6756;51.354;15.754;2023-03-14T12:29:27;15.70;1.00
13375;DHT22;6756;51.354;15.754;2023-03-14T12:33:32;15.60;1.00
13375;DHT22;6756;51.354;15.754;2023-03-14T12:37:40;15.30;1.00
13375;DHT22;6756;51.354;15.754;2023-03-14T12:41:45;15.20;1.00
13375;DHT22;6756;51.354;15.754;2023-03-14T12:50:14;15.00;1.00
13375;DHT22;6756;51.354;15.754;2023-03-14T12:54:36;14.80;1.00
13375;DHT22;6756;51.354;15.754;2023-03-14T13:03:20;14.90;1.00
13375;DHT22;6756;51.354;15.754;2023-03-14T13:11:41;15.10;1.00
13375;DHT22;6756;51.354;15.754;2023-03-14T13:15:45;15.40;1.00
13375;DHT22;6756;51.354;15.754;2023-03-14T13:19:52;15.40;1.00
13375;DHT22;6756;51.354;15.754;2023-03-14T13:23:59;15.50;1.00
13375;DHT22;6756;51.354;15.754;2023-03-14T13:28:01;15.50;1.00
13375;DHT22;6756;51.354;15.754;2023-03-14T13:32:17;15.50;1.00
13375;DHT22;6756;51.354;15.754;2023-03-14T13:36:22;15.50;1.00
13375;DHT22;6756;51.354;15.754;2023-03-14T13:40:32;15.30;1.00
13375;DHT22;6756;51.354;15.754;2023-03-14T13:44:37;15.00;1.00
13375;DHT22;6756;51.354;15.754;2023-03-14T13:48:47;14.90;1.00
13375;DHT22;6756;51.354;15.754;2023-03-14T13:52:55;14.80;1.00
13375;DHT22;6756;51.354;15.754;2023-03-14T13:57:02;14.60;1.00
13375;DHT22;6756;51.354;15.754;2023-03-14T14:05:12;14.40;1.00
13375;DHT22;6756;51.354;15.754;2023-03-14T14:09:52;14.30;1.00
13375;DHT22;6756;51.354;15.754;2023-03-14T14:13:54;14.40;1.00
13375;DHT22;6756;51.354;15.754;2023-03-14T14:18:01;14.60;1.00
13375;DHT22;6756;51.354;15.754;2023-03-14T14:22:04;14.90;1.00
13375;DHT22;6756;51.354;15.754;2023-03-14T14:26:05;15.10;1.00
13375;DHT22;6756;51.354;15.754;2023-03-14T14:30:33;15.10;1.00
13375;DHT22;6756;51.354;15.754;2023-03-14T14:39:01;15.40;1.00
13375;DHT22;6756;51.354;15.754;2023-03-14T14:43:05;15.20;1.00
13375;DHT22;6756;51.354;15.754;2023-03-14T14:47:06;14.90;1.00
13375;DHT22;6756;51.354;15.754;2023-03-14T14:51:07;14.70;1.00
13375;DHT22;6756;51.354;15.754;2023-03-14T14:55:16;14.50;1.00
13375;DHT22;6756;51.354;15.754;2023-03-14T14:59:24;14.40;1.00
13375;DHT22;6756;51.354;15.754;2023-03-14T15:03:27;14.20;1.00
13375;DHT22;6756;51.354;15.754;2023-03-14T15:07:29;14.10;1.00
13375;DHT22;6756;51.354;15.754;2023-03-14T15:11:30;14.20;1.00
13375;DHT22;6756;51.354;15.754;2023-03-14T15:15:31;14.30;1.00
13375;DHT22;6756;51.354;15.754;2023-03-14T15:19:32;14.40;1.00
13375;DHT22;6756;51.354;15.754;2023-03-14T15:23:33;14.50;1.00
13375;DHT22;6756;51.354;15.754;2023-03-14T15:27:34;14.40;1.00
13375;DHT22;6756;51.354;15.754;2023-03-14T15:31:35;14.50;1.00
13375;DHT22;6756;51.354;15.754;2023-03-14T15:35:36;14.40;1.00
13375;DHT22;6756;51.354;15.754;2023-03-14T15:39:38;14.30;1.00
13375;DHT22;6756;51.354;15.754;2023-03-14T15:43:39;14.20;1.00
13375;DHT22;6756;51.354;15.754;2023-03-14T15:47:40;14.20;1.00
13375;DHT22;6756;51.354;15.754;2023-03-14T15:51:41;14.30;1.00
13375;DHT22;6756;51.354;15.754;2023-03-14T15:55:41;14.40;1.00
13375;DHT22;6756;51.354;15.754;2023-03-14T15:59:42;14.10;1.00
13375;DHT22;6756;51.354;15.754;2023-03-14T16:03:46;13.80;1.00
13375;DHT22;6756;51.354;15.754;2023-03-14T16:07:48;13.50;1.00
13375;DHT22;6756;51.354;15.754;2023-03-14T16:11:49;13.30;1.00
13375;DHT22;6756;51.354;15.754;2023-03-14T16:16:01;13.20;1.00
13375;DHT22;6756;51.354;15.754;2023-03-14T16:20:03;13.20;1.00
13375;DHT22;6756;51.354;15.754;2023-03-14T16:24:04;13.10;1.00
13375;DHT22;6756;51.354;15.754;2023-03-14T16:28:06;13.10;1.00
13375;DHT22;6756;51.354;15.754;2023-03-14T16:32:07;13.10;1.00
13375;DHT22;6756;51.354;15.754;2023-03-14T16:36:10;13.00;1.00
13375;DHT22;6756;51.354;15.754;2023-03-14T16:40:11;12.90;1.00
13375;DHT22;6756;51.354;15.754;2023-03-14T16:44:12;12.80;1.00
13375;DHT22;6756;51.354;15.754;2023-03-14T16:48:13;12.70;1.00
13375;DHT22;6756;51.354;15.754;2023-03-14T16:52:14;12.60;1.00
13375;DHT22;6756;51.354;15.754;2023-03-14T16:56:15;12.50;1.00
13375;DHT22;6756;51.354;15.754;2023-03-14T17:00:16;12.40;1.00
13375;DHT22;6756;51.354;15.754;2023-03-14T17:04:17;12.20;1.00
13375;DHT22;6756;51.354;15.754;2023-03-14T17:08:19;12.00;1.00
13375;DHT22;6756;51.354;15.754;2023-03-14T17:12:20;12.00;1.00
13375;DHT22;6756;51.354;15.754;2023-03-14T17:16:21;11.90;1.00
13375;DHT22;6756;51.354;15.754;2023-03-14T17:20:22;11.80;2.90
13375;DHT22;6756;51.354;15.754;2023-03-14T17:24:23;11.70;11.80
13375;DHT22;6756;51.354;15.754;2023-03-14T17:28:25;11.60;19.30
13375;DHT22;6756;51.354;15.754;2023-03-14T17:32:27;11.50;19.70
13375;DHT22;6756;51.354;15.754;2023-03-14T17:36:28;11.50;23.00
13375;DHT22;6756;51.354;15.754;2023-03-14T17:40:32;11.50;22.80
13375;DHT22;6756;51.354;15.754;2023-03-14T17:44:33;11.50;25.10
13375;DHT22;6756;51.354;15.754;2023-03-14T17:48:34;11.50;29.50
13375;DHT22;6756;51.354;15.754;2023-03-14T17:52:35;11.40;35.70
13375;DHT22;6756;51.354;15.754;2023-03-14T17:56:36;11.40;41.50
13375;DHT22;6756;51.354;15.754;2023-03-14T18:00:37;11.40;45.40
13375;DHT22;6756;51.354;15.754;2023-03-14T18:04:38;11.30;48.70
13375;DHT22;6756;51.354;15.754;2023-03-14T18:08:40;11.30;52.70
13375;DHT22;6756;51.354;15.754;2023-03-14T18:12:44;11.20;58.30
13375;DHT22;6756;51.354;15.754;2023-03-14T18:16:45;11.20;61.20
13375;DHT22;6756;51.354;15.754;2023-03-14T18:20:52;11.20;71.10
13375;DHT22;6756;51.354;15.754;2023-03-14T18:24:53;11.20;99.30
13375;DHT22;6756;51.354;15.754;2023-03-14T18:28:54;11.10;99.90
13375;DHT22;6756;51.354;15.754;2023-03-14T18:32:54;11.10;99.90
13375;DHT22;6756;51.354;15.754;2023-03-14T18:36:56;11.10;99.90
13375;DHT22;6756;51.354;15.754;2023-03-14T18:41:03;10.20;99.90
13375;DHT22;6756;51.354;15.754;2023-03-14T18:45:04;8.10;98.10
13375;DHT22;6756;51.354;15.754;2023-03-14T18:49:06;7.40;99.90
13375;DHT22;6756;51.354;15.754;2023-03-14T18:53:07;7.00;1.00
13375;DHT22;6756;51.354;15.754;2023-03-14T18:57:08;6.80;1.00
13375;DHT22;6756;51.354;15.754;2023-03-14T19:01:10;6.60;10.00
13375;DHT22;6756;51.354;15.754;2023-03-14T19:05:12;6.30;99.90
13375;DHT22;6756;51.354;15.754;2023-03-14T19:09:14;6.00;1.00
13375;DHT22;6756;51.354;15.754;2023-03-14T19:13:16;5.80;1.00
13375;DHT22;6756;51.354;15.754;2023-03-14T19:17:17;5.40;99.90
13375;DHT22;6756;51.354;15.754;2023-03-14T19:21:31;4.70;1.00
13375;DHT22;6756;51.354;15.754;2023-03-14T19:25:32;4.30;99.90
13375;DHT22;6756;51.354;15.754;2023-03-14T19:29:33;4.00;1.00
13375;DHT22;6756;51.354;15.754;2023-03-14T19:33:41;3.70;99.90
13375;DHT22;6756;51.354;15.754;2023-03-14T19:37:43;3.40;1.00
13375;DHT22;6756;51.354;15.754;2023-03-14T19:41:47;3.20;99.90
13375;DHT22;6756;51.354;15.754;2023-03-14T19:45:48;2.80;99.90
13375;DHT22;6756;51.354;15.754;2023-03-14T19:49:50;2.70;99.90
13375;DHT22;6756;51.354;15.754;2023-03-14T19:53:51;2.50;99.90
13375;DHT22;6756;51.354;15.754;2023-03-14T19:57:52;2.40;1.00
13375;DHT22;6756;51.354;15.754;2023-03-14T20:01:53;2.40;94.70
13375;DHT22;6756;51.354;15.754;2023-03-14T20:05:57;2.30;99.90
13375;DHT22;6756;51.354;15.754;2023-03-14T20:09:58;2.20;1.00
13375;DHT22;6756;51.354;15.754;2023-03-14T20:13:59;2.10;99.90
13375;DHT22;6756;51.354;15.754;2023-03-14T20:18:00;2.00;99.90
13375;DHT22;6756;51.354;15.754;2023-03-14T20:22:01;2.00;99.90
13375;DHT22;6756;51.354;15.754;2023-03-14T20:26:03;2.00;39.20
13375;DHT22;6756;51.354;15.754;2023-03-14T20:30:09;1.90;95.30
13375;DHT22;6756;51.354;15.754;2023-03-14T20:34:12;1.90;1.00
13375;DHT22;6756;51.354;15.754;2023-03-14T20:38:13;1.90;1.00
13375;DHT22;6756;51.354;15.754;2023-03-14T20:42:14;1.80;1.00
13375;DHT22;6756;51.354;15.754;2023-03-14T20:46:15;1.60;1.00
13375;DHT22;6756;51.354;15.754;2023-03-14T20:50:17;1.50;99.90
13375;DHT22;6756;51.354;15.754;2023-03-14T20:54:18;1.50;99.90
13375;DHT22;6756;51.354;15.754;2023-03-14T20:58:19;1.50;99.90
13375;DHT22;6756;51.354;15.754;2023-03-14T21:02:19;1.50;99.90
13375;DHT22;6756;51.354;15.754;2023-03-14T21:06:20;1.50;99.90
13375;DHT22;6756;51.354;15.754;2023-03-14T21:10:25;1.50;99.90
13375;DHT22;6756;51.354;15.754;2023-03-14T21:14:26;1.60;99.90
13375;DHT22;6756;51.354;15.754;2023-03-14T21:18:27;1.60;99.90
13375;DHT22;6756;51.354;15.754;2023-03-14T21:22:28;1.60;99.90
13375;DHT22;6756;51.354;15.754;2023-03-14T21:26:29;1.60;99.90
13375;DHT22;6756;51.354;15.754;2023-03-14T21:30:32;1.60;99.90
13375;DHT22;6756;51.354;15.754;2023-03-14T21:34:33;1.70;99.90
13375;DHT22;6756;51.354;15.754;2023-03-14T21:38:34;1.70;99.90
13375;DHT22;6756;51.354;15.754;2023-03-14T21:42:35;1.80;99.90
13375;DHT22;6756;51.354;15.754;2023-03-14T21:46:36;1.80;99.90
13375;DHT22;6756;51.354;15.754;2023-03-14T21:50:36;1.80;99.90
13375;DHT22;6756;51.354;15.754;2023-03-14T21:54:37;1.80;99.90
13375;DHT22;6756;51.354;15.754;2023-03-14T21:58:38;1.70;99.90
13375;DHT22;6756;51.354;15.754;2023-03-14T22:02:40;1.70;99.90
13375;DHT22;6756;51.354;15.754;2023-03-14T22:06:41;1.70;99.90
13375;DHT22;6756;51.354;15.754;2023-03-14T22:10:49;1.70;99.90
13375;DHT22;6756;51.354;15.754;2023-03-14T22:14:50;1.60;99.90
13375;DHT22;6756;51.354;15.754;2023-03-14T22:18:51;1.60;99.90
13375;DHT22;6756;51.354;15.754;2023-03-14T22:22:51;1.60;99.90
13375;DHT22;6756;51.354;15.754;2023-03-14T22:26:54;1.60;99.90
13375;DHT22;6756;51.354;15.754;2023-03-14T22:30:55;1.60;99.90
13375;DHT22;6756;51.354;15.754;2023-03-14T22:34:56;1.50;99.90
13375;DHT22;6756;51.354;15.754;2023-03-14T22:38:57;1.50;99.90
13375;DHT22;6756;51.354;15.754;2023-03-14T22:42:57;1.50;99.90
13375;DHT22;6756;51.354;15.754;2023-03-14T22:46:59;1.50;99.90
13375;DHT22;6756;51.354;15.754;2023-03-14T22:51:06;1.60;99.90
13375;DHT22;6756;51.354;15.754;2023-03-14T22:55:07;1.50;99.90
13375;DHT22;6756;51.354;15.754;2023-03-14T22:59:08;1.50;99.90
13375;DHT22;6756;51.354;15.754;2023-03-14T23:03:09;1.60;99.90
13375;DHT22;6756;51.354;15.754;2023-03-14T23:07:10;1.60;99.90
13375;DHT22;6756;51.354;15.754;2023-03-14T23:11:12;1.70;99.90
13375;DHT22;6756;51.354;15.754;2023-03-14T23:15:14;1.70;99.90
13375;DHT22;6756;51.354;15.754;2023-03-14T23:19:17;1.70;99.90
13375;DHT22;6756;51.354;15.754;2023-03-14T23:23:25;1.70;99.90
13375;DHT22;6756;51.354;15.754;2023-03-14T23:27:26;1.60;99.90
13375;DHT22;6756;51.354;15.754;2023-03-14T23:31:27;1.60;99.90
13375;DHT22;6756;51.354;15.754;2023-03-14T23:35:28;1.50;99.90
13375;DHT22;6756;51.354;15.754;2023-03-14T23:39:28;1.40;99.90
13375;DHT22;6756;51.354;15.754;2023-03-14T23:43:30;1.40;99.90
13375;DHT22;6756;51.354;15.754;2023-03-14T23:47:32;1.30;99.90
13375;DHT22;6756;51.354;15.754;2023-03-14T23:51:32;1.20;99.90
13375;DHT22;6756;51.354;15.754;2023-03-14T23:55:33;1.20;99.90
13375;DHT22;6756;51.354;15.754;2023-03-14T23:59:36;1.10;99.90
